sensor_id;sensor_type;location;lat;lon;timestamp;P1;durP1;ratioP1;P2;durP2;ratioP2
62696;SDS011;48761;42.680;23.312;2024-01-15T00:00:59;87.28;;;44.10;;
62696;SDS011;48761;42.680;23.312;2024-01-15T00:03:25;93.03;;;45.45;;
62696;SDS011;48761;42.680;23.312;2024-01-15T00:05:51;98.95;;;50.97;;
62696;SDS011;48761;42.680;23.312;2024-01-15T00:08:17;106.70;;;55.85;;
62696;SDS011;48761;42.680;23.312;2024-01-15T00:10:43;120.07;;;58.60;;
62696;SDS011;48761;42.680;23.312;2024-01-15T00:13:09;112.82;;;56.92;;
62696;SDS011;48761;42.680;23.312;2024-01-15T00:15:34;116.05;;;58.55;;
62696;SDS011;48761;42.680;23.312;2024-01-15T00:18:00;111.15;;;56.10;;
62696;SDS011;48761;42.680;23.312;2024-01-15T00:20:26;107.65;;;53.78;;
62696;SDS011;48761;42.680;23.312;2024-01-15T00:22:52;108.45;;;55.17;;
62696;SDS011;48761;42.680;23.312;2024-01-15T00:25:18;127.97;;;60.17;;
62696;SDS011;48761;42.680;23.312;2024-01-15T00:27:44;116.18;;;58.22;;
62696;SDS011;48761;42.680;23.312;2024-01-15T00:30:10;160.50;;;82.05;;
62696;SDS011;48761;42.680;23.312;2024-01-15T00:32:36;125.50;;;61.42;;
62696;SDS011;48761;42.680;23.312;2024-01-15T00:35:02;121.63;;;58.95;;
62696;SDS011;48761;42.680;23.312;2024-01-15T00:37:28;113.38;;;54.25;;
62696;SDS011;48761;42.680;23.312;2024-01-15T00:39:54;97.88;;;50.10;;
62696;SDS011;48761;42.680;23.312;2024-01-15T00:42:20;97.05;;;47.83;;
62696;SDS011;48761;42.680;23.312;2024-01-15T00:44:46;97.55;;;50.67;;
62696;SDS011;48761;42.680;23.312;2024-01-15T00:47:12;101.40;;;48.95;;
62696;SDS011;48761;42.680;23.312;2024-01-15T00:49:38;94.30;;;49.47;;
62696;SDS011;48761;42.680;23.312;2024-01-15T00:52:04;83.07;;;42.83;;
62696;SDS011;48761;42.680;23.312;2024-01-15T00:54:30;83.25;;;42.03;;
62696;SDS011;48761;42.680;23.312;2024-01-15T00:56:55;85.82;;;42.05;;
62696;SDS011;48761;42.680;23.312;2024-01-15T00:59:21;80.85;;;39.45;;
62696;SDS011;48761;42.680;23.312;2024-01-15T01:01:47;83.65;;;42.38;;
62696;SDS011;48761;42.680;23.312;2024-01-15T01:04:13;76.13;;;40.85;;
62696;SDS011;48761;42.680;23.312;2024-01-15T01:06:39;72.45;;;37.67;;
62696;SDS011;48761;42.680;23.312;2024-01-15T01:09:05;68.57;;;35.65;;
62696;SDS011;48761;42.680;23.312;2024-01-15T01:11:31;65.30;;;35.75;;
62696;SDS011;48761;42.680;23.312;2024-01-15T01:13:57;67.13;;;33.90;;
62696;SDS011;48761;42.680;23.312;2024-01-15T01:16:23;73.47;;;34.13;;
62696;SDS011;48761;42.680;23.312;2024-01-15T01:18:49;72.03;;;35.03;;
62696;SDS011;48761;42.680;23.312;2024-01-15T01:21:15;65.40;;;33.97;;
62696;SDS011;48761;42.680;23.312;2024-01-15T01:23:41;71.18;;;36.22;;
62696;SDS011;48761;42.680;23.312;2024-01-15T01:26:07;69.65;;;35.65;;
62696;SDS011;48761;42.680;23.312;2024-01-15T01:28:33;66.13;;;35.33;;
62696;SDS011;48761;42.680;23.312;2024-01-15T01:30:59;70.22;;;37.22;;
62696;SDS011;48761;42.680;23.312;2024-01-15T01:33:25;70.30;;;33.97;;
62696;SDS011;48761;42.680;23.312;2024-01-15T01:35:51;62.65;;;33.30;;
62696;SDS011;48761;42.680;23.312;2024-01-15T01:38:17;69.00;;;35.97;;
62696;SDS011;48761;42.680;23.312;2024-01-15T01:40:43;83.45;;;41.63;;
62696;SDS011;48761;42.680;23.312;2024-01-15T01:43:09;76.05;;;40.15;;
62696;SDS011;48761;42.680;23.312;2024-01-15T01:45:35;77.45;;;38.53;;
62696;SDS011;48761;42.680;23.312;2024-01-15T01:48:01;75.90;;;39.45;;
62696;SDS011;48761;42.680;23.312;2024-01-15T01:50:30;66.25;;;35.58;;
62696;SDS011;48761;42.680;23.312;2024-01-15T01:52:56;65.88;;;34.60;;
62696;SDS011;48761;42.680;23.312;2024-01-15T01:55:23;68.57;;;34.45;;
62696;SDS011;48761;42.680;23.312;2024-01-15T01:57:51;71.07;;;36.55;;
62696;SDS011;48761;42.680;23.312;2024-01-15T02:00:18;69.40;;;35.33;;
62696;SDS011;48761;42.680;23.312;2024-01-15T02:02:44;77.05;;;38.15;;
62696;SDS011;48761;42.680;23.312;2024-01-15T02:05:11;92.75;;;46.72;;
62696;SDS011;48761;42.680;23.312;2024-01-15T02:07:39;89.57;;;40.85;;
62696;SDS011;48761;42.680;23.312;2024-01-15T02:10:06;74.93;;;35.13;;
62696;SDS011;48761;42.680;23.312;2024-01-15T02:12:32;72.25;;;36.20;;
62696;SDS011;48761;42.680;23.312;2024-01-15T02:14:58;66.40;;;35.05;;
62696;SDS011;48761;42.680;23.312;2024-01-15T02:17:24;71.47;;;34.28;;
62696;SDS011;48761;42.680;23.312;2024-01-15T02:19:50;68.47;;;36.05;;
62696;SDS011;48761;42.680;23.312;2024-01-15T02:22:16;76.93;;;35.08;;
62696;SDS011;48761;42.680;23.312;2024-01-15T02:24:42;72.22;;;34.40;;
62696;SDS011;48761;42.680;23.312;2024-01-15T02:27:08;70.35;;;34.65;;
62696;SDS011;48761;42.680;23.312;2024-01-15T02:29:34;131.10;;;63.33;;
62696;SDS011;48761;42.680;23.312;2024-01-15T02:32:04;111.72;;;56.10;;
62696;SDS011;48761;42.680;23.312;2024-01-15T02:34:33;111.57;;;53.80;;
62696;SDS011;48761;42.680;23.312;2024-01-15T02:37:00;98.22;;;50.10;;
62696;SDS011;48761;42.680;23.312;2024-01-15T02:39:25;107.75;;;53.20;;
62696;SDS011;48761;42.680;23.312;2024-01-15T02:41:51;97.55;;;49.38;;
62696;SDS011;48761;42.680;23.312;2024-01-15T02:44:17;92.70;;;44.33;;
62696;SDS011;48761;42.680;23.312;2024-01-15T02:46:43;84.60;;;42.13;;
62696;SDS011;48761;42.680;23.312;2024-01-15T02:49:09;85.10;;;41.50;;
62696;SDS011;48761;42.680;23.312;2024-01-15T02:51:35;82.65;;;40.28;;
62696;SDS011;48761;42.680;23.312;2024-01-15T02:54:01;78.47;;;38.58;;
62696;SDS011;48761;42.680;23.312;2024-01-15T02:56:27;89.13;;;41.90;;
62696;SDS011;48761;42.680;23.312;2024-01-15T02:58:53;76.22;;;39.10;;
62696;SDS011;48761;42.680;23.312;2024-01-15T03:01:19;79.35;;;40.55;;
62696;SDS011;48761;42.680;23.312;2024-01-15T03:03:45;77.82;;;39.83;;
62696;SDS011;48761;42.680;23.312;2024-01-15T03:06:11;78.57;;;37.92;;
62696;SDS011;48761;42.680;23.312;2024-01-15T03:08:37;70.65;;;34.40;;
62696;SDS011;48761;42.680;23.312;2024-01-15T03:11:04;65.13;;;33.00;;
62696;SDS011;48761;42.680;23.312;2024-01-15T03:13:30;75.10;;;38.53;;
62696;SDS011;48761;42.680;23.312;2024-01-15T03:15:56;78.82;;;39.65;;
62696;SDS011;48761;42.680;23.312;2024-01-15T03:18:21;95.93;;;44.72;;
62696;SDS011;48761;42.680;23.312;2024-01-15T03:20:47;82.10;;;42.33;;
62696;SDS011;48761;42.680;23.312;2024-01-15T03:23:13;99.38;;;48.58;;
62696;SDS011;48761;42.680;23.312;2024-01-15T03:25:39;99.68;;;50.88;;
62696;SDS011;48761;42.680;23.312;2024-01-15T03:28:05;112.93;;;55.75;;
62696;SDS011;48761;42.680;23.312;2024-01-15T03:30:31;110.13;;;55.15;;
62696;SDS011;48761;42.680;23.312;2024-01-15T03:32:57;116.90;;;58.45;;
62696;SDS011;48761;42.680;23.312;2024-01-15T03:35:23;134.43;;;65.57;;
62696;SDS011;48761;42.680;23.312;2024-01-15T03:37:49;145.48;;;71.65;;
62696;SDS011;48761;42.680;23.312;2024-01-15T03:40:15;144.73;;;73.05;;
62696;SDS011;48761;42.680;23.312;2024-01-15T03:42:41;142.20;;;71.05;;
62696;SDS011;48761;42.680;23.312;2024-01-15T03:45:07;151.05;;;71.13;;
62696;SDS011;48761;42.680;23.312;2024-01-15T03:47:33;150.00;;;71.20;;
62696;SDS011;48761;42.680;23.312;2024-01-15T03:49:59;138.52;;;69.70;;
62696;SDS011;48761;42.680;23.312;2024-01-15T03:52:25;142.27;;;69.28;;
62696;SDS011;48761;42.680;23.312;2024-01-15T03:54:51;136.68;;;68.40;;
62696;SDS011;48761;42.680;23.312;2024-01-15T03:57:17;144.20;;;69.57;;
62696;SDS011;48761;42.680;23.312;2024-01-15T03:59:42;138.45;;;67.55;;
62696;SDS011;48761;42.680;23.312;2024-01-15T04:02:08;130.57;;;65.72;;
62696;SDS011;48761;42.680;23.312;2024-01-15T04:04:34;129.38;;;62.72;;
62696;SDS011;48761;42.680;23.312;2024-01-15T04:07:00;122.85;;;57.65;;
62696;SDS011;48761;42.680;23.312;2024-01-15T04:09:26;116.05;;;57.92;;
62696;SDS011;48761;42.680;23.312;2024-01-15T04:11:52;108.72;;;54.88;;
62696;SDS011;48761;42.680;23.312;2024-01-15T04:14:18;119.35;;;54.92;;
62696;SDS011;48761;42.680;23.312;2024-01-15T04:16:44;107.53;;;51.20;;
62696;SDS011;48761;42.680;23.312;2024-01-15T04:19:10;104.57;;;50.95;;
62696;SDS011;48761;42.680;23.312;2024-01-15T04:21:36;107.78;;;52.33;;
62696;SDS011;48761;42.680;23.312;2024-01-15T04:24:02;118.88;;;54.45;;
62696;SDS011;48761;42.680;23.312;2024-01-15T04:26:28;111.72;;;53.63;;
62696;SDS011;48761;42.680;23.312;2024-01-15T04:28:54;103.57;;;51.80;;
62696;SDS011;48761;42.680;23.312;2024-01-15T04:31:23;108.75;;;53.83;;
62696;SDS011;48761;42.680;23.312;2024-01-15T04:33:50;116.28;;;56.72;;
62696;SDS011;48761;42.680;23.312;2024-01-15T04:36:16;107.07;;;55.22;;
62696;SDS011;48761;42.680;23.312;2024-01-15T04:38:42;110.18;;;54.78;;
62696;SDS011;48761;42.680;23.312;2024-01-15T04:41:14;111.13;;;54.42;;
62696;SDS011;48761;42.680;23.312;2024-01-15T04:43:42;106.35;;;52.95;;
62696;SDS011;48761;42.680;23.312;2024-01-15T04:46:08;110.35;;;53.40;;
62696;SDS011;48761;42.680;23.312;2024-01-15T04:48:34;111.18;;;53.83;;
62696;SDS011;48761;42.680;23.312;2024-01-15T04:51:00;115.30;;;55.20;;
62696;SDS011;48761;42.680;23.312;2024-01-15T04:53:26;105.05;;;55.03;;
62696;SDS011;48761;42.680;23.312;2024-01-15T04:55:51;110.50;;;52.92;;
62696;SDS011;48761;42.680;23.312;2024-01-15T04:58:17;115.00;;;56.65;;
62696;SDS011;48761;42.680;23.312;2024-01-15T05:00:43;121.75;;;58.80;;
62696;SDS011;48761;42.680;23.312;2024-01-15T05:03:09;125.07;;;60.08;;
62696;SDS011;48761;42.680;23.312;2024-01-15T05:05:35;115.00;;;57.83;;
62696;SDS011;48761;42.680;23.312;2024-01-15T05:08:01;121.65;;;59.25;;
62696;SDS011;48761;42.680;23.312;2024-01-15T05:10:27;124.30;;;61.45;;
62696;SDS011;48761;42.680;23.312;2024-01-15T05:12:53;118.28;;;58.90;;
62696;SDS011;48761;42.680;23.312;2024-01-15T05:15:19;120.57;;;60.00;;
62696;SDS011;48761;42.680;23.312;2024-01-15T05:17:45;118.68;;;59.22;;
62696;SDS011;48761;42.680;23.312;2024-01-15T05:20:11;116.45;;;58.50;;
62696;SDS011;48761;42.680;23.312;2024-01-15T05:22:37;120.82;;;58.05;;
62696;SDS011;48761;42.680;23.312;2024-01-15T05:25:03;119.13;;;57.20;;
62696;SDS011;48761;42.680;23.312;2024-01-15T05:27:29;125.93;;;62.22;;
62696;SDS011;48761;42.680;23.312;2024-01-15T05:29:55;122.13;;;60.15;;
62696;SDS011;48761;42.680;23.312;2024-01-15T05:32:21;133.18;;;63.03;;
62696;SDS011;48761;42.680;23.312;2024-01-15T05:34:47;133.13;;;65.70;;
62696;SDS011;48761;42.680;23.312;2024-01-15T05:37:13;142.77;;;70.03;;
62696;SDS011;48761;42.680;23.312;2024-01-15T05:39:39;147.65;;;70.95;;
62696;SDS011;48761;42.680;23.312;2024-01-15T05:42:04;135.45;;;69.78;;
62696;SDS011;48761;42.680;23.312;2024-01-15T05:44:30;134.50;;;66.40;;
62696;SDS011;48761;42.680;23.312;2024-01-15T05:46:56;139.40;;;64.97;;
62696;SDS011;48761;42.680;23.312;2024-01-15T05:49:22;123.63;;;64.53;;
62696;SDS011;48761;42.680;23.312;2024-01-15T05:51:48;144.10;;;72.30;;
62696;SDS011;48761;42.680;23.312;2024-01-15T05:54:14;166.98;;;84.35;;
62696;SDS011;48761;42.680;23.312;2024-01-15T05:56:40;155.90;;;79.20;;
62696;SDS011;48761;42.680;23.312;2024-01-15T05:59:06;148.02;;;76.70;;
62696;SDS011;48761;42.680;23.312;2024-01-15T06:01:32;134.18;;;71.47;;
62696;SDS011;48761;42.680;23.312;2024-01-15T06:03:58;147.48;;;76.55;;
62696;SDS011;48761;42.680;23.312;2024-01-15T06:06:23;155.23;;;78.35;;
62696;SDS011;48761;42.680;23.312;2024-01-15T06:08:49;164.38;;;82.38;;
62696;SDS011;48761;42.680;23.312;2024-01-15T06:11:15;167.88;;;85.13;;
62696;SDS011;48761;42.680;23.312;2024-01-15T06:13:41;164.68;;;82.78;;
62696;SDS011;48761;42.680;23.312;2024-01-15T06:16:14;163.60;;;82.50;;
62696;SDS011;48761;42.680;23.312;2024-01-15T06:18:40;164.95;;;85.35;;
62696;SDS011;48761;42.680;23.312;2024-01-15T06:21:06;166.65;;;84.47;;
62696;SDS011;48761;42.680;23.312;2024-01-15T06:23:32;159.68;;;82.35;;
62696;SDS011;48761;42.680;23.312;2024-01-15T06:25:58;160.75;;;80.20;;
62696;SDS011;48761;42.680;23.312;2024-01-15T06:28:24;160.77;;;83.60;;
62696;SDS011;48761;42.680;23.312;2024-01-15T06:30:49;155.32;;;77.07;;
62696;SDS011;48761;42.680;23.312;2024-01-15T06:33:15;152.65;;;79.00;;
62696;SDS011;48761;42.680;23.312;2024-01-15T06:35:41;171.80;;;84.50;;
62696;SDS011;48761;42.680;23.312;2024-01-15T06:38:07;169.55;;;87.05;;
62696;SDS011;48761;42.680;23.312;2024-01-15T06:40:33;173.48;;;87.95;;
62696;SDS011;48761;42.680;23.312;2024-01-15T06:42:59;174.20;;;89.95;;
62696;SDS011;48761;42.680;23.312;2024-01-15T06:45:25;179.82;;;89.70;;
62696;SDS011;48761;42.680;23.312;2024-01-15T06:47:51;178.50;;;90.32;;
62696;SDS011;48761;42.680;23.312;2024-01-15T06:50:17;171.82;;;90.32;;
62696;SDS011;48761;42.680;23.312;2024-01-15T06:52:43;172.77;;;91.40;;
62696;SDS011;48761;42.680;23.312;2024-01-15T06:55:09;179.05;;;93.03;;
62696;SDS011;48761;42.680;23.312;2024-01-15T06:57:35;180.43;;;90.30;;
62696;SDS011;48761;42.680;23.312;2024-01-15T07:00:01;165.48;;;87.22;;
62696;SDS011;48761;42.680;23.312;2024-01-15T07:02:27;166.68;;;85.78;;
62696;SDS011;48761;42.680;23.312;2024-01-15T07:04:53;214.93;;;104.05;;
62696;SDS011;48761;42.680;23.312;2024-01-15T07:07:19;186.13;;;91.20;;
62696;SDS011;48761;42.680;23.312;2024-01-15T07:09:45;169.50;;;88.40;;
62696;SDS011;48761;42.680;23.312;2024-01-15T07:12:10;168.55;;;85.97;;
62696;SDS011;48761;42.680;23.312;2024-01-15T07:14:36;166.18;;;85.85;;
62696;SDS011;48761;42.680;23.312;2024-01-15T07:17:02;163.98;;;87.03;;
62696;SDS011;48761;42.680;23.312;2024-01-15T07:19:28;158.18;;;81.30;;
62696;SDS011;48761;42.680;23.312;2024-01-15T07:21:54;144.43;;;77.60;;
62696;SDS011;48761;42.680;23.312;2024-01-15T07:24:20;150.75;;;78.72;;
62696;SDS011;48761;42.680;23.312;2024-01-15T07:26:46;154.00;;;80.47;;
62696;SDS011;48761;42.680;23.312;2024-01-15T07:29:12;153.35;;;78.43;;
62696;SDS011;48761;42.680;23.312;2024-01-15T07:31:38;159.52;;;81.22;;
62696;SDS011;48761;42.680;23.312;2024-01-15T07:34:04;151.63;;;79.40;;
62696;SDS011;48761;42.680;23.312;2024-01-15T07:36:30;156.13;;;77.65;;
62696;SDS011;48761;42.680;23.312;2024-01-15T07:38:56;146.02;;;77.63;;
62696;SDS011;48761;42.680;23.312;2024-01-15T07:41:22;142.60;;;75.28;;
62696;SDS011;48761;42.680;23.312;2024-01-15T07:43:47;148.60;;;78.22;;
62696;SDS011;48761;42.680;23.312;2024-01-15T07:46:13;154.45;;;82.07;;
62696;SDS011;48761;42.680;23.312;2024-01-15T07:48:39;160.23;;;79.30;;
62696;SDS011;48761;42.680;23.312;2024-01-15T07:51:05;151.45;;;78.15;;
62696;SDS011;48761;42.680;23.312;2024-01-15T07:53:34;145.55;;;74.22;;
62696;SDS011;48761;42.680;23.312;2024-01-15T07:56:03;145.07;;;73.50;;
62696;SDS011;48761;42.680;23.312;2024-01-15T07:58:30;131.68;;;69.88;;
62696;SDS011;48761;42.680;23.312;2024-01-15T08:00:57;124.30;;;66.00;;
62696;SDS011;48761;42.680;23.312;2024-01-15T08:03:23;132.07;;;67.47;;
62696;SDS011;48761;42.680;23.312;2024-01-15T08:05:49;135.10;;;72.30;;
62696;SDS011;48761;42.680;23.312;2024-01-15T08:08:14;130.40;;;66.93;;
62696;SDS011;48761;42.680;23.312;2024-01-15T08:10:40;141.85;;;71.25;;
62696;SDS011;48761;42.680;23.312;2024-01-15T08:13:06;144.60;;;73.32;;
62696;SDS011;48761;42.680;23.312;2024-01-15T08:15:32;142.10;;;66.20;;
62696;SDS011;48761;42.680;23.312;2024-01-15T08:17:58;132.73;;;61.70;;
62696;SDS011;48761;42.680;23.312;2024-01-15T08:20:24;115.72;;;54.08;;
62696;SDS011;48761;42.680;23.312;2024-01-15T08:22:53;108.93;;;50.85;;
62696;SDS011;48761;42.680;23.312;2024-01-15T08:25:19;110.40;;;55.42;;
62696;SDS011;48761;42.680;23.312;2024-01-15T08:27:45;109.65;;;51.65;;
62696;SDS011;48761;42.680;23.312;2024-01-15T08:30:11;103.07;;;51.45;;
62696;SDS011;48761;42.680;23.312;2024-01-15T08:32:37;104.32;;;51.92;;
62696;SDS011;48761;42.680;23.312;2024-01-15T08:35:03;100.30;;;52.28;;
62696;SDS011;48761;42.680;23.312;2024-01-15T08:37:29;97.82;;;48.92;;
62696;SDS011;48761;42.680;23.312;2024-01-15T08:39:55;98.10;;;49.80;;
62696;SDS011;48761;42.680;23.312;2024-01-15T08:42:21;100.97;;;48.08;;
62696;SDS011;48761;42.680;23.312;2024-01-15T08:44:47;97.22;;;50.08;;
62696;SDS011;48761;42.680;23.312;2024-01-15T08:47:12;93.32;;;44.65;;
62696;SDS011;48761;42.680;23.312;2024-01-15T08:49:38;98.65;;;48.22;;
62696;SDS011;48761;42.680;23.312;2024-01-15T08:52:04;100.80;;;49.95;;
62696;SDS011;48761;42.680;23.312;2024-01-15T08:54:30;107.50;;;50.53;;
62696;SDS011;48761;42.680;23.312;2024-01-15T08:56:56;106.20;;;54.67;;
62696;SDS011;48761;42.680;23.312;2024-01-15T08:59:22;108.13;;;55.35;;
62696;SDS011;48761;42.680;23.312;2024-01-15T09:01:48;84.63;;;43.67;;
62696;SDS011;48761;42.680;23.312;2024-01-15T09:04:14;93.22;;;44.58;;
62696;SDS011;48761;42.680;23.312;2024-01-15T09:06:40;91.90;;;45.30;;
62696;SDS011;48761;42.680;23.312;2024-01-15T09:09:10;92.22;;;45.78;;
62696;SDS011;48761;42.680;23.312;2024-01-15T09:11:36;92.97;;;45.08;;
62696;SDS011;48761;42.680;23.312;2024-01-15T09:14:02;90.03;;;44.42;;
62696;SDS011;48761;42.680;23.312;2024-01-15T09:16:28;81.40;;;43.10;;
62696;SDS011;48761;42.680;23.312;2024-01-15T09:18:54;78.53;;;39.72;;
62696;SDS011;48761;42.680;23.312;2024-01-15T09:21:20;81.18;;;39.78;;
62696;SDS011;48761;42.680;23.312;2024-01-15T09:23:46;91.50;;;41.90;;
62696;SDS011;48761;42.680;23.312;2024-01-15T09:26:12;85.03;;;40.25;;
62696;SDS011;48761;42.680;23.312;2024-01-15T09:28:38;78.90;;;39.35;;
62696;SDS011;48761;42.680;23.312;2024-01-15T09:31:04;79.75;;;39.22;;
62696;SDS011;48761;42.680;23.312;2024-01-15T09:33:30;87.72;;;40.47;;
62696;SDS011;48761;42.680;23.312;2024-01-15T09:35:56;87.72;;;41.42;;
62696;SDS011;48761;42.680;23.312;2024-01-15T09:38:22;104.40;;;49.70;;
62696;SDS011;48761;42.680;23.312;2024-01-15T09:40:48;123.70;;;61.10;;
62696;SDS011;48761;42.680;23.312;2024-01-15T09:43:14;161.73;;;73.63;;
62696;SDS011;48761;42.680;23.312;2024-01-15T09:45:42;163.88;;;77.80;;
62696;SDS011;48761;42.680;23.312;2024-01-15T09:48:08;151.55;;;79.40;;
62696;SDS011;48761;42.680;23.312;2024-01-15T09:50:34;161.73;;;84.70;;
62696;SDS011;48761;42.680;23.312;2024-01-15T09:53:01;177.07;;;93.47;;
62696;SDS011;48761;42.680;23.312;2024-01-15T09:55:27;194.23;;;96.10;;
62696;SDS011;48761;42.680;23.312;2024-01-15T09:57:54;191.07;;;96.47;;
62696;SDS011;48761;42.680;23.312;2024-01-15T10:00:21;178.82;;;94.60;;
62696;SDS011;48761;42.680;23.312;2024-01-15T10:02:48;175.93;;;93.22;;
62696;SDS011;48761;42.680;23.312;2024-01-15T10:05:14;193.35;;;96.45;;
62696;SDS011;48761;42.680;23.312;2024-01-15T10:07:40;180.25;;;90.03;;
62696;SDS011;48761;42.680;23.312;2024-01-15T10:10:07;187.05;;;97.70;;
62696;SDS011;48761;42.680;23.312;2024-01-15T10:12:33;175.93;;;90.43;;
62696;SDS011;48761;42.680;23.312;2024-01-15T10:15:00;162.15;;;86.15;;
62696;SDS011;48761;42.680;23.312;2024-01-15T10:17:27;137.20;;;72.22;;
62696;SDS011;48761;42.680;23.312;2024-01-15T10:19:53;147.65;;;79.38;;
62696;SDS011;48761;42.680;23.312;2024-01-15T10:22:19;132.10;;;67.70;;
62696;SDS011;48761;42.680;23.312;2024-01-15T10:24:45;138.25;;;63.03;;
62696;SDS011;48761;42.680;23.312;2024-01-15T10:27:15;127.32;;;65.18;;
62696;SDS011;48761;42.680;23.312;2024-01-15T10:29:42;103.22;;;51.00;;
62696;SDS011;48761;42.680;23.312;2024-01-15T10:32:08;101.05;;;50.92;;
62696;SDS011;48761;42.680;23.312;2024-01-15T10:34:37;124.38;;;58.17;;
62696;SDS011;48761;42.680;23.312;2024-01-15T10:37:09;106.80;;;53.97;;
62696;SDS011;48761;42.680;23.312;2024-01-15T10:39:35;110.07;;;51.65;;
62696;SDS011;48761;42.680;23.312;2024-01-15T10:42:02;88.68;;;43.65;;
62696;SDS011;48761;42.680;23.312;2024-01-15T10:44:28;79.07;;;41.53;;
62696;SDS011;48761;42.680;23.312;2024-01-15T10:46:55;75.63;;;40.50;;
62696;SDS011;48761;42.680;23.312;2024-01-15T10:49:25;88.55;;;43.13;;
62696;SDS011;48761;42.680;23.312;2024-01-15T10:51:52;75.45;;;40.60;;
62696;SDS011;48761;42.680;23.312;2024-01-15T10:54:19;87.85;;;44.67;;
62696;SDS011;48761;42.680;23.312;2024-01-15T10:56:46;95.80;;;44.53;;
62696;SDS011;48761;42.680;23.312;2024-01-15T10:59:13;90.30;;;42.47;;
62696;SDS011;48761;42.680;23.312;2024-01-15T11:01:39;89.78;;;42.67;;
62696;SDS011;48761;42.680;23.312;2024-01-15T11:04:08;86.70;;;40.63;;
62696;SDS011;48761;42.680;23.312;2024-01-15T11:06:44;79.35;;;41.38;;
62696;SDS011;48761;42.680;23.312;2024-01-15T11:09:13;70.30;;;35.60;;
62696;SDS011;48761;42.680;23.312;2024-01-15T11:11:40;68.43;;;37.92;;
62696;SDS011;48761;42.680;23.312;2024-01-15T11:14:07;67.70;;;34.00;;
62696;SDS011;48761;42.680;23.312;2024-01-15T11:19:35;68.63;;;35.10;;
62696;SDS011;48761;42.680;23.312;2024-01-15T11:22:08;69.95;;;33.10;;
62696;SDS011;48761;42.680;23.312;2024-01-15T11:27:07;65.43;;;32.50;;
62696;SDS011;48761;42.680;23.312;2024-01-15T11:29:34;58.97;;;30.90;;
62696;SDS011;48761;42.680;23.312;2024-01-15T11:32:03;52.95;;;30.33;;
62696;SDS011;48761;42.680;23.312;2024-01-15T11:40:19;53.45;;;28.90;;
62696;SDS011;48761;42.680;23.312;2024-01-15T11:42:47;51.42;;;27.17;;
62696;SDS011;48761;42.680;23.312;2024-01-15T11:45:18;38.85;;;20.77;;
62696;SDS011;48761;42.680;23.312;2024-01-15T11:50:29;44.28;;;21.30;;
62696;SDS011;48761;42.680;23.312;2024-01-15T11:53:00;40.40;;;21.33;;
62696;SDS011;48761;42.680;23.312;2024-01-15T11:58:00;38.45;;;19.25;;
62696;SDS011;48761;42.680;23.312;2024-01-15T12:00:27;39.38;;;19.70;;
62696;SDS011;48761;42.680;23.312;2024-01-15T12:02:54;41.33;;;21.90;;
62696;SDS011;48761;42.680;23.312;2024-01-15T12:05:20;43.42;;;20.13;;
62696;SDS011;48761;42.680;23.312;2024-01-15T12:07:46;51.97;;;22.73;;
62696;SDS011;48761;42.680;23.312;2024-01-15T12:10:18;45.55;;;23.10;;
62696;SDS011;48761;42.680;23.312;2024-01-15T12:15:17;38.20;;;19.45;;
62696;SDS011;48761;42.680;23.312;2024-01-15T12:17:43;44.65;;;21.30;;
62696;SDS011;48761;42.680;23.312;2024-01-15T12:20:09;40.97;;;22.15;;
62696;SDS011;48761;42.680;23.312;2024-01-15T12:22:36;41.90;;;21.60;;
62696;SDS011;48761;42.680;23.312;2024-01-15T12:25:02;48.38;;;23.08;;
62696;SDS011;48761;42.680;23.312;2024-01-15T12:27:28;41.38;;;22.20;;
62696;SDS011;48761;42.680;23.312;2024-01-15T12:29:54;43.15;;;22.85;;
62696;SDS011;48761;42.680;23.312;2024-01-15T12:32:20;51.15;;;24.60;;
62696;SDS011;48761;42.680;23.312;2024-01-15T12:34:50;58.85;;;27.20;;
62696;SDS011;48761;42.680;23.312;2024-01-15T12:37:19;60.30;;;28.38;;
62696;SDS011;48761;42.680;23.312;2024-01-15T12:39:45;60.25;;;27.55;;
62696;SDS011;48761;42.680;23.312;2024-01-15T12:42:15;58.38;;;28.55;;
62696;SDS011;48761;42.680;23.312;2024-01-15T12:44:42;54.00;;;27.63;;
62696;SDS011;48761;42.680;23.312;2024-01-15T12:47:10;60.40;;;28.20;;
62696;SDS011;48761;42.680;23.312;2024-01-15T12:49:38;61.03;;;28.65;;
62696;SDS011;48761;42.680;23.312;2024-01-15T12:52:07;59.13;;;28.27;;
62696;SDS011;48761;42.680;23.312;2024-01-15T12:54:34;55.60;;;28.40;;
62696;SDS011;48761;42.680;23.312;2024-01-15T12:57:00;51.50;;;28.55;;
62696;SDS011;48761;42.680;23.312;2024-01-15T12:59:26;53.42;;;27.67;;
62696;SDS011;48761;42.680;23.312;2024-01-15T13:01:52;56.00;;;28.42;;
62696;SDS011;48761;42.680;23.312;2024-01-15T13:04:22;56.03;;;27.95;;
62696;SDS011;48761;42.680;23.312;2024-01-15T13:06:49;49.38;;;25.70;;
62696;SDS011;48761;42.680;23.312;2024-01-15T13:09:16;53.75;;;26.65;;
62696;SDS011;48761;42.680;23.312;2024-01-15T13:11:44;52.65;;;26.63;;
62696;SDS011;48761;42.680;23.312;2024-01-15T13:14:10;56.90;;;28.48;;
62696;SDS011;48761;42.680;23.312;2024-01-15T13:16:42;64.72;;;27.98;;
62696;SDS011;48761;42.680;23.312;2024-01-15T13:19:09;57.92;;;27.20;;
62696;SDS011;48761;42.680;23.312;2024-01-15T13:21:35;57.15;;;29.17;;
62696;SDS011;48761;42.680;23.312;2024-01-15T13:24:01;57.90;;;29.08;;
62696;SDS011;48761;42.680;23.312;2024-01-15T13:26:27;62.38;;;28.60;;
62696;SDS011;48761;42.680;23.312;2024-01-15T13:28:53;63.72;;;28.15;;
62696;SDS011;48761;42.680;23.312;2024-01-15T13:31:18;65.78;;;28.95;;
62696;SDS011;48761;42.680;23.312;2024-01-15T13:33:45;60.78;;;28.23;;
62696;SDS011;48761;42.680;23.312;2024-01-15T13:36:13;62.90;;;27.50;;
62696;SDS011;48761;42.680;23.312;2024-01-15T13:38:39;67.20;;;31.20;;
62696;SDS011;48761;42.680;23.312;2024-01-15T13:41:05;64.30;;;30.10;;
62696;SDS011;48761;42.680;23.312;2024-01-15T13:43:31;71.80;;;29.95;;
62696;SDS011;48761;42.680;23.312;2024-01-15T13:45:57;67.35;;;30.92;;
62696;SDS011;48761;42.680;23.312;2024-01-15T13:48:23;58.92;;;31.08;;
62696;SDS011;48761;42.680;23.312;2024-01-15T13:50:49;72.38;;;30.58;;
62696;SDS011;48761;42.680;23.312;2024-01-15T13:53:15;71.00;;;31.67;;
62696;SDS011;48761;42.680;23.312;2024-01-15T13:55:41;54.42;;;29.50;;
62696;SDS011;48761;42.680;23.312;2024-01-15T13:58:07;63.45;;;30.40;;
62696;SDS011;48761;42.680;23.312;2024-01-15T14:00:33;59.17;;;29.88;;
62696;SDS011;48761;42.680;23.312;2024-01-15T14:02:59;56.72;;;29.75;;
62696;SDS011;48761;42.680;23.312;2024-01-15T14:05:25;55.30;;;28.27;;
62696;SDS011;48761;42.680;23.312;2024-01-15T14:07:51;60.80;;;31.02;;
62696;SDS011;48761;42.680;23.312;2024-01-15T14:10:17;70.60;;;30.15;;
62696;SDS011;48761;42.680;23.312;2024-01-15T14:12:43;68.53;;;30.48;;
62696;SDS011;48761;42.680;23.312;2024-01-15T14:15:09;69.55;;;30.35;;
62696;SDS011;48761;42.680;23.312;2024-01-15T14:17:35;65.55;;;30.85;;